sensor_id;sensor_type;location;lat;lon;timestamp;temperature;humidity
70762;DHT22;58360;0.000;0.000;2022-12-18T00:02:16;-3.40;87.90
70762;DHT22;58360;0.000;0.000;2022-12-18T00:04:42;-3.30;87.70
70762;DHT22;58360;0.000;0.000;2022-12-18T00:17:30;-3.70;88.30
70762;DHT22;58360;0.000;0.000;2022-12-18T00:23:21;-3.50;88.30
70762;DHT22;58360;0.000;0.000;2022-12-18T00:28:23;-3.70;88.40
70762;DHT22;58360;0.000;0.000;2022-12-18T00:33:54;-3.60;88.10
70762;DHT22;58360;0.000;0.000;2022-12-18T00:36:25;-3.60;87.70
70762;DHT22;58360;0.000;0.000;2022-12-18T00:38:53;-3.20;87.50
70762;DHT22;58360;0.000;0.000;2022-12-18T00:41:19;-3.40;87.30
70762;DHT22;58360;0.000;0.000;2022-12-18T00:47:06;-3.50;86.60
70762;DHT22;58360;0.000;0.000;2022-12-18T00:54:41;-3.60;86.70
70762;DHT22;58360;0.000;0.000;2022-12-18T05:37:37;-4.80;87.30
70762;DHT22;58360;0.000;0.000;2022-12-18T05:47:50;-5.00;87.60
70762;DHT22;58360;0.000;0.000;2022-12-18T05:50:37;-4.80;87.80
70762;DHT22;58360;0.000;0.000;2022-12-18T05:53:04;-4.90;87.50
70762;DHT22;58360;0.000;0.000;2022-12-18T05:55:36;-4.90;87.50
70762;DHT22;58360;0.000;0.000;2022-12-18T05:58:04;-4.80;87.10
70762;DHT22;58360;0.000;0.000;2022-12-18T06:13:27;-4.70;85.20
70762;DHT22;58360;0.000;0.000;2022-12-18T06:21:04;-4.80;85.40
70762;DHT22;58360;0.000;0.000;2022-12-18T08:09:40;-4.70;83.30
70762;DHT22;58360;0.000;0.000;2022-12-18T08:17:19;-4.60;82.90
70762;DHT22;58360;0.000;0.000;2022-12-18T08:19:45;-4.50;82.00
70762;DHT22;58360;0.000;0.000;2022-12-18T08:22:11;-4.50;82.10
70762;DHT22;58360;0.000;0.000;2022-12-18T08:27:13;-4.10;80.50
70762;DHT22;58360;0.000;0.000;2022-12-18T08:29:38;-4.00;80.10
70762;DHT22;58360;0.000;0.000;2022-12-18T08:37:15;-4.10;80.10
70762;DHT22;58360;0.000;0.000;2022-12-18T09:31:48;-2.60;78.90
70762;DHT22;58360;0.000;0.000;2022-12-18T09:34:15;-2.50;79.80
70762;DHT22;58360;0.000;0.000;2022-12-18T09:36:42;-2.50;78.70
70762;DHT22;58360;0.000;0.000;2022-12-18T09:58:30;-2.00;78.20
70762;DHT22;58360;0.000;0.000;2022-12-18T10:00:57;-1.80;77.20
70762;DHT22;58360;0.000;0.000;2022-12-18T10:17:26;-1.80;77.50
70762;DHT22;58360;0.000;0.000;2022-12-18T10:20:09;-1.70;77.50
70762;DHT22;58360;0.000;0.000;2022-12-18T11:11:23;-0.80;78.90
70762;DHT22;58360;0.000;0.000;2022-12-18T11:14:04;-0.60;78.60
70762;DHT22;58360;0.000;0.000;2022-12-18T11:16:36;-0.60;78.50
70762;DHT22;58360;0.000;0.000;2022-12-18T11:22:35;-0.50;78.20
70762;DHT22;58360;0.000;0.000;2022-12-18T11:28:04;-0.70;80.10
70762;DHT22;58360;0.000;0.000;2022-12-18T11:30:36;-0.60;80.20
70762;DHT22;58360;0.000;0.000;2022-12-18T11:33:09;-0.40;79.10
70762;DHT22;58360;0.000;0.000;2022-12-18T11:35:58;-0.40;79.30
70762;DHT22;58360;0.000;0.000;2022-12-18T11:38:42;-0.20;79.30
70762;DHT22;58360;0.000;0.000;2022-12-18T11:41:29;-0.10;79.10
70762;DHT22;58360;0.000;0.000;2022-12-18T11:44:48;-0.10;79.20
70762;DHT22;58360;0.000;0.000;2022-12-18T12:05:48;0.00;78.70
70762;DHT22;58360;0.000;0.000;2022-12-18T12:12:24;0.10;78.50
70762;DHT22;58360;0.000;0.000;2022-12-18T12:18:56;0.00;79.30
70762;DHT22;58360;0.000;0.000;2022-12-18T12:25:33;0.10;80.00
70762;DHT22;58360;0.000;0.000;2022-12-18T12:39:47;0.50;79.20
70762;DHT22;58360;0.000;0.000;2022-12-18T12:48:42;0.30;80.50
70762;DHT22;58360;0.000;0.000;2022-12-18T12:51:53;0.40;79.90
70762;DHT22;58360;0.000;0.000;2022-12-18T12:54:56;0.60;79.70
70762;DHT22;58360;0.000;0.000;2022-12-18T13:51:04;0.50;82.40
70762;DHT22;58360;0.000;0.000;2022-12-18T13:56:57;0.50;82.90
70762;DHT22;58360;0.000;0.000;2022-12-18T14:02:58;0.60;82.50
70762;DHT22;58360;0.000;0.000;2022-12-18T14:09:02;0.80;81.40
70762;DHT22;58360;0.000;0.000;2022-12-18T14:11:29;0.60;82.80
70762;DHT22;58360;0.000;0.000;2022-12-18T14:13:56;0.50;83.40
70762;DHT22;58360;0.000;0.000;2022-12-18T14:16:22;0.40;84.20
70762;DHT22;58360;0.000;0.000;2022-12-18T14:18:55;0.40;84.20
70762;DHT22;58360;0.000;0.000;2022-12-18T14:31:26;0.60;84.00
70762;DHT22;58360;0.000;0.000;2022-12-18T14:37:26;0.50;84.60
70762;DHT22;58360;0.000;0.000;2022-12-18T14:43:23;0.70;84.00
70762;DHT22;58360;0.000;0.000;2022-12-18T14:49:32;0.70;84.10
70762;DHT22;58360;0.000;0.000;2022-12-18T14:52:00;0.70;84.10
70762;DHT22;58360;0.000;0.000;2022-12-18T14:54:28;0.80;84.10
70762;DHT22;58360;0.000;0.000;2022-12-18T14:57:11;0.80;83.90
70762;DHT22;58360;0.000;0.000;2022-12-18T14:59:50;0.80;84.00
70762;DHT22;58360;0.000;0.000;2022-12-18T15:02:21;0.90;83.80
70762;DHT22;58360;0.000;0.000;2022-12-18T15:04:47;0.80;84.80
70762;DHT22;58360;0.000;0.000;2022-12-18T15:09:40;0.70;84.50
70762;DHT22;58360;0.000;0.000;2022-12-18T15:33:24;0.50;84.90
70762;DHT22;58360;0.000;0.000;2022-12-18T15:38:57;0.60;84.80
70762;DHT22;58360;0.000;0.000;2022-12-18T15:41:23;0.80;84.60
70762;DHT22;58360;0.000;0.000;2022-12-18T15:43:50;0.70;84.80
70762;DHT22;58360;0.000;0.000;2022-12-18T15:49:44;0.70;84.30
70762;DHT22;58360;0.000;0.000;2022-12-18T15:55:37;0.70;84.80
70762;DHT22;58360;0.000;0.000;2022-12-18T16:02:16;0.70;84.60
70762;DHT22;58360;0.000;0.000;2022-12-18T16:04:41;0.70;83.90
70762;DHT22;58360;0.000;0.000;2022-12-18T16:07:08;0.70;83.60
70762;DHT22;58360;0.000;0.000;2022-12-18T16:09:34;0.90;83.20
70762;DHT22;58360;0.000;0.000;2022-12-18T16:11:59;0.90;82.70
70762;DHT22;58360;0.000;0.000;2022-12-18T16:14:28;0.90;82.30
70762;DHT22;58360;0.000;0.000;2022-12-18T16:16:59;1.10;82.20
70762;DHT22;58360;0.000;0.000;2022-12-18T16:19:25;1.00;81.80
70762;DHT22;58360;0.000;0.000;2022-12-18T16:21:52;1.10;81.80
70762;DHT22;58360;0.000;0.000;2022-12-18T16:24:22;1.00;82.00
70762;DHT22;58360;0.000;0.000;2022-12-18T16:26:49;1.00;82.20
70762;DHT22;58360;0.000;0.000;2022-12-18T16:29:17;0.90;82.00
70762;DHT22;58360;0.000;0.000;2022-12-18T16:31:43;1.10;81.80
70762;DHT22;58360;0.000;0.000;2022-12-18T16:34:23;1.00;81.60
70762;DHT22;58360;0.000;0.000;2022-12-18T16:36:53;1.00;81.70
70762;DHT22;58360;0.000;0.000;2022-12-18T16:39:19;1.00;81.50
70762;DHT22;58360;0.000;0.000;2022-12-18T16:45:26;0.90;81.60
70762;DHT22;58360;0.000;0.000;2022-12-18T16:51:15;1.00;81.10
70762;DHT22;58360;0.000;0.000;2022-12-18T16:53:40;1.20;80.60
70762;DHT22;58360;0.000;0.000;2022-12-18T16:56:06;1.20;80.10
70762;DHT22;58360;0.000;0.000;2022-12-18T16:58:32;1.20;79.90
70762;DHT22;58360;0.000;0.000;2022-12-18T17:00:58;1.10;79.90
70762;DHT22;58360;0.000;0.000;2022-12-18T17:03:24;1.10;80.90
70762;DHT22;58360;0.000;0.000;2022-12-18T17:05:50;1.10;80.10
70762;DHT22;58360;0.000;0.000;2022-12-18T17:08:15;1.10;80.40
70762;DHT22;58360;0.000;0.000;2022-12-18T17:10:41;1.10;80.40
70762;DHT22;58360;0.000;0.000;2022-12-18T17:13:07;1.20;80.20
70762;DHT22;58360;0.000;0.000;2022-12-18T17:15:36;1.30;79.60
70762;DHT22;58360;0.000;0.000;2022-12-18T17:18:02;1.40;79.20
70762;DHT22;58360;0.000;0.000;2022-12-18T17:20:29;1.50;78.80
70762;DHT22;58360;0.000;0.000;2022-12-18T17:22:58;1.50;78.50
70762;DHT22;58360;0.000;0.000;2022-12-18T17:25:23;1.40;78.70
70762;DHT22;58360;0.000;0.000;2022-12-18T17:27:50;1.40;78.70
70762;DHT22;58360;0.000;0.000;2022-12-18T17:30:15;1.60;77.90
70762;DHT22;58360;0.000;0.000;2022-12-18T17:32:41;1.60;77.60
70762;DHT22;58360;0.000;0.000;2022-12-18T17:35:07;1.70;77.50
70762;DHT22;58360;0.000;0.000;2022-12-18T17:37:33;1.60;77.00
70762;DHT22;58360;0.000;0.000;2022-12-18T17:39:58;1.60;77.60
70762;DHT22;58360;0.000;0.000;2022-12-18T17:42:24;1.70;77.50
70762;DHT22;58360;0.000;0.000;2022-12-18T17:44:50;1.60;77.60
70762;DHT22;58360;0.000;0.000;2022-12-18T17:47:17;1.60;78.20
70762;DHT22;58360;0.000;0.000;2022-12-18T17:49:42;1.80;78.10
70762;DHT22;58360;0.000;0.000;2022-12-18T17:52:08;1.60;78.30
70762;DHT22;58360;0.000;0.000;2022-12-18T17:54:34;1.70;78.90
70762;DHT22;58360;0.000;0.000;2022-12-18T17:57:04;1.40;79.20
70762;DHT22;58360;0.000;0.000;2022-12-18T17:59:30;1.40;79.50
70762;DHT22;58360;0.000;0.000;2022-12-18T18:01:55;1.40;79.70
70762;DHT22;58360;0.000;0.000;2022-12-18T18:04:21;1.60;79.60
70762;DHT22;58360;0.000;0.000;2022-12-18T18:06:49;1.60;79.70
70762;DHT22;58360;0.000;0.000;2022-12-18T18:09:15;1.60;79.80
70762;DHT22;58360;0.000;0.000;2022-12-18T18:11:40;1.50;80.00
70762;DHT22;58360;0.000;0.000;2022-12-18T18:14:27;1.60;80.30
70762;DHT22;58360;0.000;0.000;2022-12-18T18:16:52;1.60;80.90
70762;DHT22;58360;0.000;0.000;2022-12-18T18:22:49;1.60;81.20
70762;DHT22;58360;0.000;0.000;2022-12-18T18:25:14;1.60;81.10
70762;DHT22;58360;0.000;0.000;2022-12-18T18:27:41;1.60;81.50
70762;DHT22;58360;0.000;0.000;2022-12-18T18:30:07;1.80;81.90
70762;DHT22;58360;0.000;0.000;2022-12-18T18:32:33;1.70;81.60
70762;DHT22;58360;0.000;0.000;2022-12-18T18:45:15;1.60;83.00
70762;DHT22;58360;0.000;0.000;2022-12-18T18:47:40;1.60;83.50
70762;DHT22;58360;0.000;0.000;2022-12-18T18:50:06;1.60;84.10
70762;DHT22;58360;0.000;0.000;2022-12-18T18:52:47;1.80;83.70
70762;DHT22;58360;0.000;0.000;2022-12-18T18:55:12;1.70;84.00
70762;DHT22;58360;0.000;0.000;2022-12-18T18:57:38;1.70;84.60
70762;DHT22;58360;0.000;0.000;2022-12-18T19:00:04;1.60;85.30
70762;DHT22;58360;0.000;0.000;2022-12-18T19:02:30;1.60;85.30
70762;DHT22;58360;0.000;0.000;2022-12-18T19:04:55;1.70;85.20
70762;DHT22;58360;0.000;0.000;2022-12-18T19:07:22;1.60;85.60
70762;DHT22;58360;0.000;0.000;2022-12-18T19:13:13;1.60;86.10
70762;DHT22;58360;0.000;0.000;2022-12-18T19:15:50;1.60;86.20
70762;DHT22;58360;0.000;0.000;2022-12-18T19:18:17;1.70;85.80
70762;DHT22;58360;0.000;0.000;2022-12-18T19:20:42;1.80;85.70
70762;DHT22;58360;0.000;0.000;2022-12-18T19:23:08;1.80;85.90
70762;DHT22;58360;0.000;0.000;2022-12-18T19:25:38;1.80;85.70
70762;DHT22;58360;0.000;0.000;2022-12-18T19:28:04;1.80;86.60
70762;DHT22;58360;0.000;0.000;2022-12-18T19:30:30;1.80;86.40
70762;DHT22;58360;0.000;0.000;2022-12-18T19:32:56;1.80;86.60
70762;DHT22;58360;0.000;0.000;2022-12-18T19:35:23;1.80;86.90
70762;DHT22;58360;0.000;0.000;2022-12-18T19:37:48;1.70;87.30
70762;DHT22;58360;0.000;0.000;2022-12-18T19:40:14;1.70;87.80
70762;DHT22;58360;0.000;0.000;2022-12-18T19:42:39;1.60;88.30
70762;DHT22;58360;0.000;0.000;2022-12-18T19:45:06;1.70;88.40
70762;DHT22;58360;0.000;0.000;2022-12-18T19:47:31;1.70;88.30
70762;DHT22;58360;0.000;0.000;2022-12-18T19:49:57;1.80;88.00
70762;DHT22;58360;0.000;0.000;2022-12-18T19:52:22;1.70;88.80
70762;DHT22;58360;0.000;0.000;2022-12-18T19:54:49;1.80;88.90
70762;DHT22;58360;0.000;0.000;2022-12-18T19:57:14;1.90;88.80
70762;DHT22;58360;0.000;0.000;2022-12-18T19:59:40;1.90;88.60
70762;DHT22;58360;0.000;0.000;2022-12-18T20:02:13;1.90;89.30
70762;DHT22;58360;0.000;0.000;2022-12-18T20:04:39;1.80;88.90
70762;DHT22;58360;0.000;0.000;2022-12-18T20:07:05;1.90;89.40
70762;DHT22;58360;0.000;0.000;2022-12-18T20:09:31;2.00;89.40
70762;DHT22;58360;0.000;0.000;2022-12-18T20:11:58;1.90;89.40
70762;DHT22;58360;0.000;0.000;2022-12-18T20:14:23;2.10;89.40
70762;DHT22;58360;0.000;0.000;2022-12-18T20:16:50;2.10;88.90
70762;DHT22;58360;0.000;0.000;2022-12-18T20:19:16;2.00;88.90
70762;DHT22;58360;0.000;0.000;2022-12-18T20:21:42;2.10;88.90
70762;DHT22;58360;0.000;0.000;2022-12-18T20:24:08;1.90;89.60
70762;DHT22;58360;0.000;0.000;2022-12-18T20:26:34;1.90;89.60
70762;DHT22;58360;0.000;0.000;2022-12-18T20:28:59;1.90;89.90
70762;DHT22;58360;0.000;0.000;2022-12-18T20:37:53;1.80;90.40
70762;DHT22;58360;0.000;0.000;2022-12-18T20:40:23;2.00;90.10
70762;DHT22;58360;0.000;0.000;2022-12-18T20:42:49;1.90;90.20
70762;DHT22;58360;0.000;0.000;2022-12-18T20:45:15;1.90;90.30
70762;DHT22;58360;0.000;0.000;2022-12-18T20:47:41;2.00;90.20
70762;DHT22;58360;0.000;0.000;2022-12-18T20:50:07;2.10;90.00
70762;DHT22;58360;0.000;0.000;2022-12-18T20:52:33;2.10;90.00
70762;DHT22;58360;0.000;0.000;2022-12-18T20:54:58;2.10;90.10
70762;DHT22;58360;0.000;0.000;2022-12-18T20:57:27;2.10;90.40
70762;DHT22;58360;0.000;0.000;2022-12-18T20:59:52;2.10;90.30
70762;DHT22;58360;0.000;0.000;2022-12-18T21:02:18;2.20;90.20
70762;DHT22;58360;0.000;0.000;2022-12-18T21:04:45;2.20;90.20
70762;DHT22;58360;0.000;0.000;2022-12-18T21:07:10;2.30;90.10
70762;DHT22;58360;0.000;0.000;2022-12-18T21:09:36;2.40;89.70
70762;DHT22;58360;0.000;0.000;2022-12-18T21:12:02;2.50;89.90
70762;DHT22;58360;0.000;0.000;2022-12-18T21:14:46;2.40;90.00
70762;DHT22;58360;0.000;0.000;2022-12-18T21:17:12;2.60;89.30
70762;DHT22;58360;0.000;0.000;2022-12-18T21:19:39;2.40;90.00
70762;DHT22;58360;0.000;0.000;2022-12-18T21:22:04;2.40;90.00
70762;DHT22;58360;0.000;0.000;2022-12-18T21:24:30;2.40;89.80
70762;DHT22;58360;0.000;0.000;2022-12-18T21:26:56;2.60;89.70
70762;DHT22;58360;0.000;0.000;2022-12-18T21:29:23;2.50;89.80
70762;DHT22;58360;0.000;0.000;2022-12-18T21:31:50;2.50;89.90
70762;DHT22;58360;0.000;0.000;2022-12-18T21:34:19;2.70;90.00
70762;DHT22;58360;0.000;0.000;2022-12-18T21:36:45;2.50;89.70
70762;DHT22;58360;0.000;0.000;2022-12-18T21:39:11;2.80;89.80
70762;DHT22;58360;0.000;0.000;2022-12-18T21:41:37;2.60;90.00
70762;DHT22;58360;0.000;0.000;2022-12-18T21:44:21;2.40;90.30
70762;DHT22;58360;0.000;0.000;2022-12-18T21:46:48;2.50;90.20
70762;DHT22;58360;0.000;0.000;2022-12-18T21:49:15;2.50;90.20
70762;DHT22;58360;0.000;0.000;2022-12-18T21:51:49;2.50;90.30
70762;DHT22;58360;0.000;0.000;2022-12-18T21:54:16;2.50;90.40
70762;DHT22;58360;0.000;0.000;2022-12-18T21:56:52;2.60;90.20
70762;DHT22;58360;0.000;0.000;2022-12-18T22:01:48;2.60;90.10
70762;DHT22;58360;0.000;0.000;2022-12-18T22:04:14;2.70;90.00
70762;DHT22;58360;0.000;0.000;2022-12-18T22:06:40;2.70;90.00
70762;DHT22;58360;0.000;0.000;2022-12-18T22:09:09;2.70;90.00
70762;DHT22;58360;0.000;0.000;2022-12-18T22:11:35;2.80;89.70
70762;DHT22;58360;0.000;0.000;2022-12-18T22:14:01;2.90;89.70
70762;DHT22;58360;0.000;0.000;2022-12-18T22:16:27;2.80;89.90
70762;DHT22;58360;0.000;0.000;2022-12-18T22:18:53;2.80;90.20
70762;DHT22;58360;0.000;0.000;2022-12-18T22:21:30;2.80;90.10
70762;DHT22;58360;0.000;0.000;2022-12-18T22:23:58;2.70;90.40
70762;DHT22;58360;0.000;0.000;2022-12-18T22:26:26;2.60;90.40
70762;DHT22;58360;0.000;0.000;2022-12-18T22:28:52;2.50;90.80
70762;DHT22;58360;0.000;0.000;2022-12-18T22:31:37;2.50;90.90
70762;DHT22;58360;0.000;0.000;2022-12-18T22:34:03;2.60;90.70
70762;DHT22;58360;0.000;0.000;2022-12-18T22:36:35;2.70;90.70
70762;DHT22;58360;0.000;0.000;2022-12-18T22:39:01;2.70;90.70
70762;DHT22;58360;0.000;0.000;2022-12-18T22:41:27;2.70;90.50
70762;DHT22;58360;0.000;0.000;2022-12-18T22:43:53;2.70;90.50
70762;DHT22;58360;0.000;0.000;2022-12-18T22:46:19;2.70;90.80
70762;DHT22;58360;0.000;0.000;2022-12-18T22:48:45;2.80;90.80
70762;DHT22;58360;0.000;0.000;2022-12-18T22:51:15;2.90;90.60
70762;DHT22;58360;0.000;0.000;2022-12-18T22:53:42;2.90;90.70
70762;DHT22;58360;0.000;0.000;2022-12-18T22:56:07;2.90;90.60
70762;DHT22;58360;0.000;0.000;2022-12-18T22:58:33;2.90;90.70
70762;DHT22;58360;0.000;0.000;2022-12-18T23:01:00;2.90;91.10
70762;DHT22;58360;0.000;0.000;2022-12-18T23:03:25;2.80;91.00
70762;DHT22;58360;0.000;0.000;2022-12-18T23:05:51;2.80;91.40
70762;DHT22;58360;0.000;0.000;2022-12-18T23:08:17;3.00;91.30
70762;DHT22;58360;0.000;0.000;2022-12-18T23:10:42;3.00;91.30
70762;DHT22;58360;0.000;0.000;2022-12-18T23:13:08;3.00;91.30
70762;DHT22;58360;0.000;0.000;2022-12-18T23:15:39;3.20;91.00
70762;DHT22;58360;0.000;0.000;2022-12-18T23:18:05;3.10;91.10
70762;DHT22;58360;0.000;0.000;2022-12-18T23:20:30;3.00;91.30
70762;DHT22;58360;0.000;0.000;2022-12-18T23:22:56;2.90;91.60
70762;DHT22;58360;0.000;0.000;2022-12-18T23:25:22;2.80;92.00
70762;DHT22;58360;0.000;0.000;2022-12-18T23:27:48;2.90;92.10
70762;DHT22;58360;0.000;0.000;2022-12-18T23:30:13;2.90;92.00
70762;DHT22;58360;0.000;0.000;2022-12-18T23:32:39;3.00;92.00
70762;DHT22;58360;0.000;0.000;2022-12-18T23:35:06;3.10;92.10
70762;DHT22;58360;0.000;0.000;2022-12-18T23:37:31;3.10;92.10
70762;DHT22;58360;0.000;0.000;2022-12-18T23:39:57;3.10;92.20
70762;DHT22;58360;0.000;0.000;2022-12-18T23:42:23;3.20;92.20
70762;DHT22;58360;0.000;0.000;2022-12-18T23:44:48;3.30;92.00
70762;DHT22;58360;0.000;0.000;2022-12-18T23:47:14;3.30;92.10
70762;DHT22;58360;0.000;0.000;2022-12-18T23:49:39;3.30;92.30
70762;DHT22;58360;0.000;0.000;2022-12-18T23:52:05;3.30;92.30
70762;DHT22;58360;0.000;0.000;2022-12-18T23:54:31;3.40;92.40
70762;DHT22;58360;0.000;0.000;2022-12-18T23:56:57;3.40;92.70
70762;DHT22;58360;0.000;0.000;2022-12-18T23:59:22;3.50;92.30
